sensor_id;sensor_type;location;lat;lon;timestamp;temperature;humidity
46091;DHT22;31826;53.572;10.170;2022-07-26T00:01:07;18.70;99.90
46091;DHT22;31826;53.572;10.170;2022-07-26T00:03:33;18.70;99.90
46091;DHT22;31826;53.572;10.170;2022-07-26T00:05:59;18.70;99.90
46091;DHT22;31826;53.572;10.170;2022-07-26T00:08:25;18.70;99.90
46091;DHT22;31826;53.572;10.170;2022-07-26T00:10:51;18.70;99.90
46091;DHT22;31826;53.572;10.170;2022-07-26T00:13:18;18.60;99.90
46091;DHT22;31826;53.572;10.170;2022-07-26T00:15:45;18.60;99.90
46091;DHT22;31826;53.572;10.170;2022-07-26T00:18:11;18.60;99.90
46091;DHT22;31826;53.572;10.170;2022-07-26T00:20:37;18.50;99.90
46091;DHT22;31826;53.572;10.170;2022-07-26T00:23:03;18.50;99.90
46091;DHT22;31826;53.572;10.170;2022-07-26T00:25:28;18.40;99.90
46091;DHT22;31826;53.572;10.170;2022-07-26T00:27:55;18.40;99.90
46091;DHT22;31826;53.572;10.170;2022-07-26T00:30:20;18.30;99.90
46091;DHT22;31826;53.572;10.170;2022-07-26T00:32:46;18.40;99.90
46091;DHT22;31826;53.572;10.170;2022-07-26T00:35:12;18.40;99.90
46091;DHT22;31826;53.572;10.170;2022-07-26T00:37:38;18.40;99.90
46091;DHT22;31826;53.572;10.170;2022-07-26T00:40:05;18.40;99.90
46091;DHT22;31826;53.572;10.170;2022-07-26T00:42:31;18.30;99.90
46091;DHT22;31826;53.572;10.170;2022-07-26T00:44:57;18.40;99.90
46091;DHT22;31826;53.572;10.170;2022-07-26T00:47:23;18.30;99.90
46091;DHT22;31826;53.572;10.170;2022-07-26T00:49:49;18.40;99.90
46091;DHT22;31826;53.572;10.170;2022-07-26T00:52:15;18.40;99.90
46091;DHT22;31826;53.572;10.170;2022-07-26T00:54:43;18.40;99.90
46091;DHT22;31826;53.572;10.170;2022-07-26T00:57:13;18.40;99.90
46091;DHT22;31826;53.572;10.170;2022-07-26T00:59:39;18.40;99.90
46091;DHT22;31826;53.572;10.170;2022-07-26T01:02:06;18.40;99.90
46091;DHT22;31826;53.572;10.170;2022-07-26T01:04:33;18.30;99.90
46091;DHT22;31826;53.572;10.170;2022-07-26T01:07:00;18.30;99.90
46091;DHT22;31826;53.572;10.170;2022-07-26T01:09:26;18.30;99.90
46091;DHT22;31826;53.572;10.170;2022-07-26T01:11:52;18.20;99.90
46091;DHT22;31826;53.572;10.170;2022-07-26T01:14:21;18.20;99.90
46091;DHT22;31826;53.572;10.170;2022-07-26T01:16:48;18.20;99.90
46091;DHT22;31826;53.572;10.170;2022-07-26T01:19:14;18.20;99.90
46091;DHT22;31826;53.572;10.170;2022-07-26T01:21:40;18.20;99.90
46091;DHT22;31826;53.572;10.170;2022-07-26T01:24:06;18.30;99.90
46091;DHT22;31826;53.572;10.170;2022-07-26T01:26:32;18.30;99.90
46091;DHT22;31826;53.572;10.170;2022-07-26T01:28:58;18.20;99.90
46091;DHT22;31826;53.572;10.170;2022-07-26T01:31:24;18.20;99.90
46091;DHT22;31826;53.572;10.170;2022-07-26T01:33:50;18.10;99.90
46091;DHT22;31826;53.572;10.170;2022-07-26T01:36:16;18.10;99.90
46091;DHT22;31826;53.572;10.170;2022-07-26T01:38:42;18.00;99.90
46091;DHT22;31826;53.572;10.170;2022-07-26T01:41:08;18.00;99.90
46091;DHT22;31826;53.572;10.170;2022-07-26T01:43:35;18.00;99.90
46091;DHT22;31826;53.572;10.170;2022-07-26T01:46:03;18.00;99.90
46091;DHT22;31826;53.572;10.170;2022-07-26T01:48:29;18.00;99.90
46091;DHT22;31826;53.572;10.170;2022-07-26T01:50:55;17.90;99.90
46091;DHT22;31826;53.572;10.170;2022-07-26T01:53:21;17.90;99.90
46091;DHT22;31826;53.572;10.170;2022-07-26T01:55:47;17.90;99.90
46091;DHT22;31826;53.572;10.170;2022-07-26T01:58:12;17.90;99.90
46091;DHT22;31826;53.572;10.170;2022-07-26T02:00:38;17.90;99.90
46091;DHT22;31826;53.572;10.170;2022-07-26T02:03:04;17.80;99.90
46091;DHT22;31826;53.572;10.170;2022-07-26T02:05:30;17.70;99.90
46091;DHT22;31826;53.572;10.170;2022-07-26T02:07:55;17.70;99.90
46091;DHT22;31826;53.572;10.170;2022-07-26T02:10:21;17.90;99.90
46091;DHT22;31826;53.572;10.170;2022-07-26T02:12:48;17.70;99.90
46091;DHT22;31826;53.572;10.170;2022-07-26T02:15:14;17.70;99.90
46091;DHT22;31826;53.572;10.170;2022-07-26T02:17:41;17.70;99.90
46091;DHT22;31826;53.572;10.170;2022-07-26T02:20:08;17.70;99.90
46091;DHT22;31826;53.572;10.170;2022-07-26T02:22:34;17.70;99.90
46091;DHT22;31826;53.572;10.170;2022-07-26T02:24:59;17.70;99.90
46091;DHT22;31826;53.572;10.170;2022-07-26T02:27:25;17.60;99.90
46091;DHT22;31826;53.572;10.170;2022-07-26T02:29:51;17.60;99.90
46091;DHT22;31826;53.572;10.170;2022-07-26T02:32:17;17.70;99.90
46091;DHT22;31826;53.572;10.170;2022-07-26T02:34:43;17.70;99.90
46091;DHT22;31826;53.572;10.170;2022-07-26T02:37:08;17.70;99.90
46091;DHT22;31826;53.572;10.170;2022-07-26T02:39:34;17.70;99.90
46091;DHT22;31826;53.572;10.170;2022-07-26T02:42:01;17.60;99.90
46091;DHT22;31826;53.572;10.170;2022-07-26T02:44:28;17.70;99.90
46091;DHT22;31826;53.572;10.170;2022-07-26T02:46:55;17.70;99.90
46091;DHT22;31826;53.572;10.170;2022-07-26T02:49:21;17.70;99.90
46091;DHT22;31826;53.572;10.170;2022-07-26T02:51:47;17.70;99.90
46091;DHT22;31826;53.572;10.170;2022-07-26T02:54:13;17.70;99.90
46091;DHT22;31826;53.572;10.170;2022-07-26T02:56:39;17.70;99.90
46091;DHT22;31826;53.572;10.170;2022-07-26T02:59:06;17.60;99.90
46091;DHT22;31826;53.572;10.170;2022-07-26T03:01:32;17.60;99.90
46091;DHT22;31826;53.572;10.170;2022-07-26T03:04:00;17.60;99.90
46091;DHT22;31826;53.572;10.170;2022-07-26T03:06:26;17.60;99.90
46091;DHT22;31826;53.572;10.170;2022-07-26T03:08:52;17.60;99.90
46091;DHT22;31826;53.572;10.170;2022-07-26T03:11:18;17.60;99.90
46091;DHT22;31826;53.572;10.170;2022-07-26T03:13:43;17.50;99.90
46091;DHT22;31826;53.572;10.170;2022-07-26T03:16:09;17.50;99.90
46091;DHT22;31826;53.572;10.170;2022-07-26T03:18:35;17.50;99.90
46091;DHT22;31826;53.572;10.170;2022-07-26T03:21:01;17.50;99.90
46091;DHT22;31826;53.572;10.170;2022-07-26T03:23:27;17.60;99.90
46091;DHT22;31826;53.572;10.170;2022-07-26T03:25:57;17.60;99.90
46091;DHT22;31826;53.572;10.170;2022-07-26T03:28:23;17.60;99.90
46091;DHT22;31826;53.572;10.170;2022-07-26T03:30:49;17.60;99.90
46091;DHT22;31826;53.572;10.170;2022-07-26T03:33:14;17.60;99.90
46091;DHT22;31826;53.572;10.170;2022-07-26T03:35:40;17.60;99.90
46091;DHT22;31826;53.572;10.170;2022-07-26T03:38:06;17.60;99.90
46091;DHT22;31826;53.572;10.170;2022-07-26T03:40:32;17.60;99.90
46091;DHT22;31826;53.572;10.170;2022-07-26T03:42:58;17.70;99.90
46091;DHT22;31826;53.572;10.170;2022-07-26T03:45:23;17.60;99.90
46091;DHT22;31826;53.572;10.170;2022-07-26T03:47:49;17.60;99.90
46091;DHT22;31826;53.572;10.170;2022-07-26T03:50:15;17.60;99.90
46091;DHT22;31826;53.572;10.170;2022-07-26T03:52:41;17.50;99.90
46091;DHT22;31826;53.572;10.170;2022-07-26T03:55:07;17.70;99.90
46091;DHT22;31826;53.572;10.170;2022-07-26T03:57:51;17.60;99.90
46091;DHT22;31826;53.572;10.170;2022-07-26T04:00:17;17.70;99.90
46091;DHT22;31826;53.572;10.170;2022-07-26T04:02:43;17.70;99.90
46091;DHT22;31826;53.572;10.170;2022-07-26T04:05:09;17.70;99.90
46091;DHT22;31826;53.572;10.170;2022-07-26T04:07:42;17.70;99.90
46091;DHT22;31826;53.572;10.170;2022-07-26T04:10:09;17.70;99.90
46091;DHT22;31826;53.572;10.170;2022-07-26T04:12:51;17.70;99.90
46091;DHT22;31826;53.572;10.170;2022-07-26T04:15:16;17.70;99.90
46091;DHT22;31826;53.572;10.170;2022-07-26T04:17:43;17.70;99.90
46091;DHT22;31826;53.572;10.170;2022-07-26T04:20:10;17.80;99.90
46091;DHT22;31826;53.572;10.170;2022-07-26T04:22:38;17.80;99.90
46091;DHT22;31826;53.572;10.170;2022-07-26T04:25:05;17.90;99.90
46091;DHT22;31826;53.572;10.170;2022-07-26T04:27:31;17.80;99.90
46091;DHT22;31826;53.572;10.170;2022-07-26T04:29:57;17.80;99.90
46091;DHT22;31826;53.572;10.170;2022-07-26T04:32:23;17.90;99.90
46091;DHT22;31826;53.572;10.170;2022-07-26T04:34:50;17.80;99.90
46091;DHT22;31826;53.572;10.170;2022-07-26T04:37:15;17.90;99.90
46091;DHT22;31826;53.572;10.170;2022-07-26T04:39:41;17.80;99.90
46091;DHT22;31826;53.572;10.170;2022-07-26T04:42:07;17.90;99.90
46091;DHT22;31826;53.572;10.170;2022-07-26T04:44:32;18.00;99.90
46091;DHT22;31826;53.572;10.170;2022-07-26T04:46:58;18.00;99.90
46091;DHT22;31826;53.572;10.170;2022-07-26T04:49:24;17.90;99.90
46091;DHT22;31826;53.572;10.170;2022-07-26T04:51:50;18.00;99.90
46091;DHT22;31826;53.572;10.170;2022-07-26T04:54:15;17.90;99.90
46091;DHT22;31826;53.572;10.170;2022-07-26T04:56:45;17.90;99.90
46091;DHT22;31826;53.572;10.170;2022-07-26T04:59:12;17.90;99.90
46091;DHT22;31826;53.572;10.170;2022-07-26T05:01:38;18.00;99.90
46091;DHT22;31826;53.572;10.170;2022-07-26T05:04:04;18.00;99.90
46091;DHT22;31826;53.572;10.170;2022-07-26T05:06:30;18.10;99.90
46091;DHT22;31826;53.572;10.170;2022-07-26T05:08:57;18.10;99.90
46091;DHT22;31826;53.572;10.170;2022-07-26T05:11:23;18.10;99.90
46091;DHT22;31826;53.572;10.170;2022-07-26T05:13:49;18.10;99.90
46091;DHT22;31826;53.572;10.170;2022-07-26T05:16:15;18.00;99.90
46091;DHT22;31826;53.572;10.170;2022-07-26T05:18:41;17.90;99.90
46091;DHT22;31826;53.572;10.170;2022-07-26T05:21:07;17.80;99.90
46091;DHT22;31826;53.572;10.170;2022-07-26T05:23:33;17.80;99.90
46091;DHT22;31826;53.572;10.170;2022-07-26T05:25:59;17.80;99.90
46091;DHT22;31826;53.572;10.170;2022-07-26T05:28:25;17.80;99.90
46091;DHT22;31826;53.572;10.170;2022-07-26T05:30:51;17.70;99.90
46091;DHT22;31826;53.572;10.170;2022-07-26T05:33:16;17.70;99.90
46091;DHT22;31826;53.572;10.170;2022-07-26T05:35:42;17.70;99.90
46091;DHT22;31826;53.572;10.170;2022-07-26T05:38:08;17.60;99.90
46091;DHT22;31826;53.572;10.170;2022-07-26T05:40:34;17.50;99.90
46091;DHT22;31826;53.572;10.170;2022-07-26T05:43:00;17.30;99.90
46091;DHT22;31826;53.572;10.170;2022-07-26T05:45:25;17.30;99.90
46091;DHT22;31826;53.572;10.170;2022-07-26T05:47:52;17.10;99.90
46091;DHT22;31826;53.572;10.170;2022-07-26T05:50:18;17.10;99.90
46091;DHT22;31826;53.572;10.170;2022-07-26T05:52:44;17.10;99.90
46091;DHT22;31826;53.572;10.170;2022-07-26T05:55:10;17.10;99.90
46091;DHT22;31826;53.572;10.170;2022-07-26T05:57:37;17.10;99.90
46091;DHT22;31826;53.572;10.170;2022-07-26T06:00:09;17.10;99.90
46091;DHT22;31826;53.572;10.170;2022-07-26T06:02:35;17.20;99.90
46091;DHT22;31826;53.572;10.170;2022-07-26T06:05:01;17.10;99.90
46091;DHT22;31826;53.572;10.170;2022-07-26T06:07:29;17.10;99.90
46091;DHT22;31826;53.572;10.170;2022-07-26T06:09:55;17.20;99.90
46091;DHT22;31826;53.572;10.170;2022-07-26T06:12:21;17.10;99.90
46091;DHT22;31826;53.572;10.170;2022-07-26T06:14:46;17.20;99.90
46091;DHT22;31826;53.572;10.170;2022-07-26T06:17:12;17.20;99.90
46091;DHT22;31826;53.572;10.170;2022-07-26T06:19:38;17.30;99.90
46091;DHT22;31826;53.572;10.170;2022-07-26T06:22:04;17.40;99.90
46091;DHT22;31826;53.572;10.170;2022-07-26T06:24:30;17.30;99.90
46091;DHT22;31826;53.572;10.170;2022-07-26T06:26:55;17.50;99.90
46091;DHT22;31826;53.572;10.170;2022-07-26T06:29:22;17.50;99.90
46091;DHT22;31826;53.572;10.170;2022-07-26T06:31:49;17.60;99.90
46091;DHT22;31826;53.572;10.170;2022-07-26T06:34:15;17.70;99.90
46091;DHT22;31826;53.572;10.170;2022-07-26T06:36:41;18.00;99.90
46091;DHT22;31826;53.572;10.170;2022-07-26T06:39:06;18.20;99.90
46091;DHT22;31826;53.572;10.170;2022-07-26T06:41:32;18.50;99.90
46091;DHT22;31826;53.572;10.170;2022-07-26T06:43:58;18.40;99.90
46091;DHT22;31826;53.572;10.170;2022-07-26T06:46:24;18.40;99.90
46091;DHT22;31826;53.572;10.170;2022-07-26T06:48:49;18.30;99.90
46091;DHT22;31826;53.572;10.170;2022-07-26T06:51:15;18.20;99.90
46091;DHT22;31826;53.572;10.170;2022-07-26T06:53:41;18.30;99.90
46091;DHT22;31826;53.572;10.170;2022-07-26T06:56:07;18.50;99.90
46091;DHT22;31826;53.572;10.170;2022-07-26T06:58:33;18.70;99.90
46091;DHT22;31826;53.572;10.170;2022-07-26T07:00:59;18.70;99.90
46091;DHT22;31826;53.572;10.170;2022-07-26T07:03:24;18.60;99.90
46091;DHT22;31826;53.572;10.170;2022-07-26T07:05:50;18.70;99.90
46091;DHT22;31826;53.572;10.170;2022-07-26T07:08:17;18.50;99.90
46091;DHT22;31826;53.572;10.170;2022-07-26T07:10:43;18.20;99.90
46091;DHT22;31826;53.572;10.170;2022-07-26T07:13:08;18.20;99.90
46091;DHT22;31826;53.572;10.170;2022-07-26T07:15:34;18.10;99.90
46091;DHT22;31826;53.572;10.170;2022-07-26T07:18:00;17.90;99.90
46091;DHT22;31826;53.572;10.170;2022-07-26T07:20:26;17.70;99.90
46091;DHT22;31826;53.572;10.170;2022-07-26T07:22:53;17.60;99.90
46091;DHT22;31826;53.572;10.170;2022-07-26T07:25:18;17.60;99.90
46091;DHT22;31826;53.572;10.170;2022-07-26T07:27:44;17.60;99.90
46091;DHT22;31826;53.572;10.170;2022-07-26T07:30:10;17.60;99.90
46091;DHT22;31826;53.572;10.170;2022-07-26T07:32:36;17.80;99.90
46091;DHT22;31826;53.572;10.170;2022-07-26T07:35:02;18.10;99.90
46091;DHT22;31826;53.572;10.170;2022-07-26T07:37:28;18.20;99.90
46091;DHT22;31826;53.572;10.170;2022-07-26T07:39:54;18.30;99.90
46091;DHT22;31826;53.572;10.170;2022-07-26T07:42:20;18.50;99.90
46091;DHT22;31826;53.572;10.170;2022-07-26T07:44:46;18.40;99.90
46091;DHT22;31826;53.572;10.170;2022-07-26T07:47:12;18.60;99.90
46091;DHT22;31826;53.572;10.170;2022-07-26T07:49:38;18.70;99.90
46091;DHT22;31826;53.572;10.170;2022-07-26T07:52:04;19.10;99.90
46091;DHT22;31826;53.572;10.170;2022-07-26T07:54:30;19.50;99.90
46091;DHT22;31826;53.572;10.170;2022-07-26T07:56:56;19.70;99.90
46091;DHT22;31826;53.572;10.170;2022-07-26T07:59:22;19.80;99.90
46091;DHT22;31826;53.572;10.170;2022-07-26T08:01:48;19.50;99.90
46091;DHT22;31826;53.572;10.170;2022-07-26T08:04:14;19.10;99.90
46091;DHT22;31826;53.572;10.170;2022-07-26T08:06:40;18.40;99.90
46091;DHT22;31826;53.572;10.170;2022-07-26T08:09:06;18.10;99.90
46091;DHT22;31826;53.572;10.170;2022-07-26T08:11:32;18.10;99.90
46091;DHT22;31826;53.572;10.170;2022-07-26T08:13:58;18.20;99.90
46091;DHT22;31826;53.572;10.170;2022-07-26T08:16:23;18.30;99.90
46091;DHT22;31826;53.572;10.170;2022-07-26T08:18:49;18.50;99.90
46091;DHT22;31826;53.572;10.170;2022-07-26T08:21:15;18.80;99.90
46091;DHT22;31826;53.572;10.170;2022-07-26T08:23:41;18.90;99.90
46091;DHT22;31826;53.572;10.170;2022-07-26T08:26:06;19.20;99.90
46091;DHT22;31826;53.572;10.170;2022-07-26T08:28:32;19.20;99.90
46091;DHT22;31826;53.572;10.170;2022-07-26T08:30:58;19.40;99.90
46091;DHT22;31826;53.572;10.170;2022-07-26T08:33:24;19.60;99.90
46091;DHT22;31826;53.572;10.170;2022-07-26T08:35:50;19.60;99.90
46091;DHT22;31826;53.572;10.170;2022-07-26T08:38:15;19.60;99.90
46091;DHT22;31826;53.572;10.170;2022-07-26T08:40:41;19.70;99.90
46091;DHT22;31826;53.572;10.170;2022-07-26T08:43:07;20.00;99.90
46091;DHT22;31826;53.572;10.170;2022-07-26T08:45:33;20.00;99.90
46091;DHT22;31826;53.572;10.170;2022-07-26T08:47:59;20.10;99.90
46091;DHT22;31826;53.572;10.170;2022-07-26T08:50:28;20.00;99.90
46091;DHT22;31826;53.572;10.170;2022-07-26T08:52:59;20.00;99.90
46091;DHT22;31826;53.572;10.170;2022-07-26T08:55:26;19.70;99.90
46091;DHT22;31826;53.572;10.170;2022-07-26T08:57:52;19.00;99.90
46091;DHT22;31826;53.572;10.170;2022-07-26T09:00:22;18.70;99.90
46091;DHT22;31826;53.572;10.170;2022-07-26T09:02:50;19.00;99.90
46091;DHT22;31826;53.572;10.170;2022-07-26T09:05:29;19.40;99.90
46091;DHT22;31826;53.572;10.170;2022-07-26T09:07:55;20.10;99.90
46091;DHT22;31826;53.572;10.170;2022-07-26T09:10:21;20.40;99.90
46091;DHT22;31826;53.572;10.170;2022-07-26T09:12:55;20.70;99.90
46091;DHT22;31826;53.572;10.170;2022-07-26T09:15:25;20.50;99.90
46091;DHT22;31826;53.572;10.170;2022-07-26T09:17:54;20.70;99.90
46091;DHT22;31826;53.572;10.170;2022-07-26T09:20:26;20.70;99.90
46091;DHT22;31826;53.572;10.170;2022-07-26T09:23:01;21.00;99.90
46091;DHT22;31826;53.572;10.170;2022-07-26T09:25:30;21.30;99.90
46091;DHT22;31826;53.572;10.170;2022-07-26T09:27:57;21.50;99.90
46091;DHT22;31826;53.572;10.170;2022-07-26T09:30:24;21.40;99.90
46091;DHT22;31826;53.572;10.170;2022-07-26T09:33:05;20.80;99.90
46091;DHT22;31826;53.572;10.170;2022-07-26T09:35:33;20.50;99.90
46091;DHT22;31826;53.572;10.170;2022-07-26T09:38:00;19.90;99.90
46091;DHT22;31826;53.572;10.170;2022-07-26T09:40:33;19.50;99.90
46091;DHT22;31826;53.572;10.170;2022-07-26T09:43:04;19.50;99.90
46091;DHT22;31826;53.572;10.170;2022-07-26T09:45:32;19.60;99.90
46091;DHT22;31826;53.572;10.170;2022-07-26T09:47:59;19.70;99.90
46091;DHT22;31826;53.572;10.170;2022-07-26T09:50:28;19.80;99.90
46091;DHT22;31826;53.572;10.170;2022-07-26T09:53:12;20.10;99.90
46091;DHT22;31826;53.572;10.170;2022-07-26T09:58:12;20.60;99.90
46091;DHT22;31826;53.572;10.170;2022-07-26T10:00:38;20.80;99.90
46091;DHT22;31826;53.572;10.170;2022-07-26T10:03:04;21.30;99.90
46091;DHT22;31826;53.572;10.170;2022-07-26T10:05:33;21.40;99.90
46091;DHT22;31826;53.572;10.170;2022-07-26T10:08:00;21.60;99.90
46091;DHT22;31826;53.572;10.170;2022-07-26T10:10:29;22.00;99.90
46091;DHT22;31826;53.572;10.170;2022-07-26T10:12:57;22.10;99.90
46091;DHT22;31826;53.572;10.170;2022-07-26T10:15:42;22.30;99.90
46091;DHT22;31826;53.572;10.170;2022-07-26T10:18:10;21.90;99.90
46091;DHT22;31826;53.572;10.170;2022-07-26T10:20:48;21.90;99.90
46091;DHT22;31826;53.572;10.170;2022-07-26T10:23:33;21.80;99.90
46091;DHT22;31826;53.572;10.170;2022-07-26T10:26:00;21.90;99.90
46091;DHT22;31826;53.572;10.170;2022-07-26T10:28:29;22.30;99.90
46091;DHT22;31826;53.572;10.170;2022-07-26T10:31:27;22.60;99.90
46091;DHT22;31826;53.572;10.170;2022-07-26T10:33:57;22.80;99.60
46091;DHT22;31826;53.572;10.170;2022-07-26T10:36:32;22.50;97.40
46091;DHT22;31826;53.572;10.170;2022-07-26T10:39:05;22.20;98.80
46091;DHT22;31826;53.572;10.170;2022-07-26T10:41:40;21.70;98.80
46091;DHT22;31826;53.572;10.170;2022-07-26T10:44:25;21.50;99.90
46091;DHT22;31826;53.572;10.170;2022-07-26T10:52:22;22.40;99.90
46091;DHT22;31826;53.572;10.170;2022-07-26T10:57:29;23.40;95.40
46091;DHT22;31826;53.572;10.170;2022-07-26T10:59:56;23.00;95.80
46091;DHT22;31826;53.572;10.170;2022-07-26T11:02:27;22.70;94.20
46091;DHT22;31826;53.572;10.170;2022-07-26T11:05:12;22.50;97.40
46091;DHT22;31826;53.572;10.170;2022-07-26T11:08:00;22.90;97.90
46091;DHT22;31826;53.572;10.170;2022-07-26T11:10:32;23.40;93.60
46091;DHT22;31826;53.572;10.170;2022-07-26T11:13:07;23.40;93.80
46091;DHT22;31826;53.572;10.170;2022-07-26T11:15:34;23.40;94.00
46091;DHT22;31826;53.572;10.170;2022-07-26T11:18:17;23.20;91.20
46091;DHT22;31826;53.572;10.170;2022-07-26T11:20:46;22.70;89.60
46091;DHT22;31826;53.572;10.170;2022-07-26T11:23:29;22.30;87.80
46091;DHT22;31826;53.572;10.170;2022-07-26T11:31:20;21.20;91.00
46091;DHT22;31826;53.572;10.170;2022-07-26T11:33:49;20.90;93.20
46091;DHT22;31826;53.572;10.170;2022-07-26T11:38:57;20.70;94.80
46091;DHT22;31826;53.572;10.170;2022-07-26T11:41:25;20.90;96.00
46091;DHT22;31826;53.572;10.170;2022-07-26T11:43:52;21.30;97.00
46091;DHT22;31826;53.572;10.170;2022-07-26T11:46:18;21.90;95.30
46091;DHT22;31826;53.572;10.170;2022-07-26T11:48:47;22.40;93.20
46091;DHT22;31826;53.572;10.170;2022-07-26T11:51:16;22.80;91.70
46091;DHT22;31826;53.572;10.170;2022-07-26T11:53:42;23.30;91.70
46091;DHT22;31826;53.572;10.170;2022-07-26T11:58:42;23.30;84.50
46091;DHT22;31826;53.572;10.170;2022-07-26T12:01:09;22.60;82.30
46091;DHT22;31826;53.572;10.170;2022-07-26T12:03:40;22.50;87.40
46091;DHT22;31826;53.572;10.170;2022-07-26T12:06:09;21.90;90.00
46091;DHT22;31826;53.572;10.170;2022-07-26T12:08:54;22.10;90.50
46091;DHT22;31826;53.572;10.170;2022-07-26T12:11:22;22.50;86.20
46091;DHT22;31826;53.572;10.170;2022-07-26T12:13:59;23.00;87.70
46091;DHT22;31826;53.572;10.170;2022-07-26T12:16:40;23.60;90.00
46091;DHT22;31826;53.572;10.170;2022-07-26T12:19:28;23.80;82.00
46091;DHT22;31826;53.572;10.170;2022-07-26T12:27:16;23.90;78.40
46091;DHT22;31826;53.572;10.170;2022-07-26T12:29:46;24.00;80.90
46091;DHT22;31826;53.572;10.170;2022-07-26T12:32:14;24.60;77.00
46091;DHT22;31826;53.572;10.170;2022-07-26T12:35:03;24.90;75.90
46091;DHT22;31826;53.572;10.170;2022-07-26T12:37:32;24.80;71.80
46091;DHT22;31826;53.572;10.170;2022-07-26T12:40:04;24.40;70.90
46091;DHT22;31826;53.572;10.170;2022-07-26T12:42:36;24.60;76.40
46091;DHT22;31826;53.572;10.170;2022-07-26T12:45:04;24.70;70.80
46091;DHT22;31826;53.572;10.170;2022-07-26T12:47:34;24.70;67.80
46091;DHT22;31826;53.572;10.170;2022-07-26T12:50:00;24.70;69.20
46091;DHT22;31826;53.572;10.170;2022-07-26T12:52:28;24.80;63.90
46091;DHT22;31826;53.572;10.170;2022-07-26T12:54:54;24.70;69.40
46091;DHT22;31826;53.572;10.170;2022-07-26T12:57:20;24.90;68.10
46091;DHT22;31826;53.572;10.170;2022-07-26T12:59:47;24.90;66.10
46091;DHT22;31826;53.572;10.170;2022-07-26T13:02:15;24.70;66.40
46091;DHT22;31826;53.572;10.170;2022-07-26T13:04:41;25.00;67.50
46091;DHT22;31826;53.572;10.170;2022-07-26T13:07:07;24.70;66.20
46091;DHT22;31826;53.572;10.170;2022-07-26T13:09:33;24.20;68.70
46091;DHT22;31826;53.572;10.170;2022-07-26T13:12:00;24.20;66.70
46091;DHT22;31826;53.572;10.170;2022-07-26T13:14:26;23.80;66.00
46091;DHT22;31826;53.572;10.170;2022-07-26T13:16:52;23.80;67.20
46091;DHT22;31826;53.572;10.170;2022-07-26T13:19:18;23.70;69.00
46091;DHT22;31826;53.572;10.170;2022-07-26T13:21:43;24.00;70.10
46091;DHT22;31826;53.572;10.170;2022-07-26T13:24:09;23.80;67.90
46091;DHT22;31826;53.572;10.170;2022-07-26T13:26:35;23.80;66.70
46091;DHT22;31826;53.572;10.170;2022-07-26T13:29:01;24.20;66.70
46091;DHT22;31826;53.572;10.170;2022-07-26T13:31:27;24.20;67.60
46091;DHT22;31826;53.572;10.170;2022-07-26T13:33:53;24.30;66.90
46091;DHT22;31826;53.572;10.170;2022-07-26T13:36:19;24.40;66.50
46091;DHT22;31826;53.572;10.170;2022-07-26T13:38:44;24.50;69.00
46091;DHT22;31826;53.572;10.170;2022-07-26T13:41:10;24.40;66.50
46091;DHT22;31826;53.572;10.170;2022-07-26T13:43:36;25.00;71.50
46091;DHT22;31826;53.572;10.170;2022-07-26T13:46:02;24.90;67.00
46091;DHT22;31826;53.572;10.170;2022-07-26T13:48:28;24.60;66.00
46091;DHT22;31826;53.572;10.170;2022-07-26T13:50:54;24.40;63.60
46091;DHT22;31826;53.572;10.170;2022-07-26T13:53:19;23.90;64.10
46091;DHT22;31826;53.572;10.170;2022-07-26T13:55:45;23.80;63.30
46091;DHT22;31826;53.572;10.170;2022-07-26T13:58:11;23.90;65.10
46091;DHT22;31826;53.572;10.170;2022-07-26T14:00:38;24.00;64.40
46091;DHT22;31826;53.572;10.170;2022-07-26T14:03:04;24.00;68.30
46091;DHT22;31826;53.572;10.170;2022-07-26T14:05:30;23.60;67.40
46091;DHT22;31826;53.572;10.170;2022-07-26T14:07:55;23.70;70.60
46091;DHT22;31826;53.572;10.170;2022-07-26T14:10:22;23.50;67.70
46091;DHT22;31826;53.572;10.170;2022-07-26T14:12:48;23.60;69.10
46091;DHT22;31826;53.572;10.170;2022-07-26T14:15:14;22.80;70.60
46091;DHT22;31826;53.572;10.170;2022-07-26T14:17:40;22.30;72.20
46091;DHT22;31826;53.572;10.170;2022-07-26T14:20:06;22.20;73.60
46091;DHT22;31826;53.572;10.170;2022-07-26T14:22:32;22.80;77.30
46091;DHT22;31826;53.572;10.170;2022-07-26T14:24:57;23.20;73.90
46091;DHT22;31826;53.572;10.170;2022-07-26T14:27:23;23.40;67.80
46091;DHT22;31826;53.572;10.170;2022-07-26T14:29:49;23.10;67.80
46091;DHT22;31826;53.572;10.170;2022-07-26T14:32:15;22.90;68.60
46091;DHT22;31826;53.572;10.170;2022-07-26T14:34:41;22.80;70.10
46091;DHT22;31826;53.572;10.170;2022-07-26T14:37:07;22.80;68.00
46091;DHT22;31826;53.572;10.170;2022-07-26T14:39:33;22.90;68.10
46091;DHT22;31826;53.572;10.170;2022-07-26T14:42:00;22.10;68.10
46091;DHT22;31826;53.572;10.170;2022-07-26T14:44:26;21.70;70.90
46091;DHT22;31826;53.572;10.170;2022-07-26T14:46:52;21.40;72.30
46091;DHT22;31826;53.572;10.170;2022-07-26T14:49:18;21.60;75.00
46091;DHT22;31826;53.572;10.170;2022-07-26T14:51:44;21.80;74.00
46091;DHT22;31826;53.572;10.170;2022-07-26T14:54:12;22.10;74.00
46091;DHT22;31826;53.572;10.170;2022-07-26T14:56:38;22.30;73.10
46091;DHT22;31826;53.572;10.170;2022-07-26T14:59:03;22.30;73.30
46091;DHT22;31826;53.572;10.170;2022-07-26T15:01:29;22.30;72.10
46091;DHT22;31826;53.572;10.170;2022-07-26T15:03:55;22.50;72.60
46091;DHT22;31826;53.572;10.170;2022-07-26T15:06:21;22.60;70.50
46091;DHT22;31826;53.572;10.170;2022-07-26T15:08:47;22.10;70.70
46091;DHT22;31826;53.572;10.170;2022-07-26T15:11:13;21.80;71.60
46091;DHT22;31826;53.572;10.170;2022-07-26T15:13:39;22.00;71.90
46091;DHT22;31826;53.572;10.170;2022-07-26T15:16:05;22.40;73.30
46091;DHT22;31826;53.572;10.170;2022-07-26T15:18:31;22.50;69.80
46091;DHT22;31826;53.572;10.170;2022-07-26T15:20:57;22.90;73.20
46091;DHT22;31826;53.572;10.170;2022-07-26T15:23:23;22.70;67.40
46091;DHT22;31826;53.572;10.170;2022-07-26T15:25:50;23.10;71.50
46091;DHT22;31826;53.572;10.170;2022-07-26T15:28:15;23.40;68.40
46091;DHT22;31826;53.572;10.170;2022-07-26T15:30:41;23.40;67.60
46091;DHT22;31826;53.572;10.170;2022-07-26T15:33:07;23.70;68.30
46091;DHT22;31826;53.572;10.170;2022-07-26T15:35:33;23.20;66.60
46091;DHT22;31826;53.572;10.170;2022-07-26T15:38:03;23.10;70.10
46091;DHT22;31826;53.572;10.170;2022-07-26T15:40:29;23.00;70.90
46091;DHT22;31826;53.572;10.170;2022-07-26T15:42:55;22.40;69.10